sensor_id;sensor_type;location;lat;lon;timestamp;temperature;humidity
53264;DHT22;39153;52.680;6.172;2024-01-30T00:02:22;6.90;99.90
53264;DHT22;39153;52.680;6.172;2024-01-30T00:04:47;7.00;99.90
53264;DHT22;39153;52.680;6.172;2024-01-30T00:07:13;6.80;99.90
53264;DHT22;39153;52.680;6.172;2024-01-30T00:09:39;6.90;99.90
53264;DHT22;39153;52.680;6.172;2024-01-30T00:12:06;7.00;99.90
53264;DHT22;39153;52.680;6.172;2024-01-30T00:14:31;6.70;99.90
53264;DHT22;39153;52.680;6.172;2024-01-30T00:16:57;6.70;99.90
53264;DHT22;39153;52.680;6.172;2024-01-30T00:19:23;7.00;99.90
53264;DHT22;39153;52.680;6.172;2024-01-30T00:21:48;6.80;99.90
53264;DHT22;39153;52.680;6.172;2024-01-30T00:24:14;6.70;99.90
53264;DHT22;39153;52.680;6.172;2024-01-30T00:26:40;6.60;99.90
53264;DHT22;39153;52.680;6.172;2024-01-30T00:29:05;7.00;99.90
53264;DHT22;39153;52.680;6.172;2024-01-30T00:31:31;7.00;99.90
53264;DHT22;39153;52.680;6.172;2024-01-30T00:33:57;7.00;99.90
53264;DHT22;39153;52.680;6.172;2024-01-30T00:36:23;6.80;99.90
53264;DHT22;39153;52.680;6.172;2024-01-30T00:38:48;6.90;99.90
53264;DHT22;39153;52.680;6.172;2024-01-30T00:41:15;6.50;99.90
53264;DHT22;39153;52.680;6.172;2024-01-30T00:43:42;6.70;99.90
53264;DHT22;39153;52.680;6.172;2024-01-30T00:46:08;6.60;99.90
53264;DHT22;39153;52.680;6.172;2024-01-30T00:48:34;6.90;99.90
53264;DHT22;39153;52.680;6.172;2024-01-30T00:50:59;6.80;99.90
53264;DHT22;39153;52.680;6.172;2024-01-30T00:53:25;6.90;99.90
53264;DHT22;39153;52.680;6.172;2024-01-30T00:55:51;6.60;99.90
53264;DHT22;39153;52.680;6.172;2024-01-30T00:58:17;6.60;99.90
53264;DHT22;39153;52.680;6.172;2024-01-30T01:00:44;7.00;99.90
53264;DHT22;39153;52.680;6.172;2024-01-30T01:03:10;6.90;99.90
53264;DHT22;39153;52.680;6.172;2024-01-30T01:05:36;6.80;99.90
53264;DHT22;39153;52.680;6.172;2024-01-30T01:08:02;6.60;99.90
53264;DHT22;39153;52.680;6.172;2024-01-30T01:10:27;6.50;99.90
53264;DHT22;39153;52.680;6.172;2024-01-30T01:12:54;6.70;99.90
53264;DHT22;39153;52.680;6.172;2024-01-30T01:15:19;6.90;99.90
53264;DHT22;39153;52.680;6.172;2024-01-30T01:17:45;6.80;99.90
53264;DHT22;39153;52.680;6.172;2024-01-30T01:20:11;6.40;99.90
53264;DHT22;39153;52.680;6.172;2024-01-30T01:22:37;6.70;99.90
53264;DHT22;39153;52.680;6.172;2024-01-30T01:25:04;6.80;99.90
53264;DHT22;39153;52.680;6.172;2024-01-30T01:27:32;6.60;99.90
53264;DHT22;39153;52.680;6.172;2024-01-30T01:30:00;6.80;99.90
53264;DHT22;39153;52.680;6.172;2024-01-30T01:32:25;6.50;99.90
53264;DHT22;39153;52.680;6.172;2024-01-30T01:34:51;6.70;99.90
53264;DHT22;39153;52.680;6.172;2024-01-30T01:37:17;6.70;99.90
53264;DHT22;39153;52.680;6.172;2024-01-30T01:39:43;6.40;99.90
53264;DHT22;39153;52.680;6.172;2024-01-30T01:42:09;6.70;99.90
53264;DHT22;39153;52.680;6.172;2024-01-30T01:44:34;6.60;99.90
53264;DHT22;39153;52.680;6.172;2024-01-30T01:47:00;6.40;99.90
53264;DHT22;39153;52.680;6.172;2024-01-30T01:49:27;6.60;99.90
53264;DHT22;39153;52.680;6.172;2024-01-30T01:51:55;6.60;99.90
53264;DHT22;39153;52.680;6.172;2024-01-30T01:54:23;6.40;99.90
53264;DHT22;39153;52.680;6.172;2024-01-30T01:56:50;6.70;99.90
53264;DHT22;39153;52.680;6.172;2024-01-30T01:59:17;6.30;99.90
53264;DHT22;39153;52.680;6.172;2024-01-30T02:01:43;6.80;99.90
53264;DHT22;39153;52.680;6.172;2024-01-30T02:04:11;6.40;99.90
53264;DHT22;39153;52.680;6.172;2024-01-30T02:06:37;6.50;99.90
53264;DHT22;39153;52.680;6.172;2024-01-30T02:09:03;6.80;99.90
53264;DHT22;39153;52.680;6.172;2024-01-30T02:11:30;6.70;99.90
53264;DHT22;39153;52.680;6.172;2024-01-30T02:13:56;6.90;99.90
53264;DHT22;39153;52.680;6.172;2024-01-30T02:16:22;6.20;99.90
53264;DHT22;39153;52.680;6.172;2024-01-30T02:18:48;6.20;99.90
53264;DHT22;39153;52.680;6.172;2024-01-30T02:21:17;6.60;99.90
53264;DHT22;39153;52.680;6.172;2024-01-30T02:23:44;6.70;99.90
53264;DHT22;39153;52.680;6.172;2024-01-30T02:26:11;6.60;99.90
53264;DHT22;39153;52.680;6.172;2024-01-30T02:28:37;6.50;99.90
53264;DHT22;39153;52.680;6.172;2024-01-30T02:31:03;6.00;99.90
53264;DHT22;39153;52.680;6.172;2024-01-30T02:33:29;6.70;99.90
53264;DHT22;39153;52.680;6.172;2024-01-30T02:35:55;6.00;99.90
53264;DHT22;39153;52.680;6.172;2024-01-30T02:38:21;6.10;99.90
53264;DHT22;39153;52.680;6.172;2024-01-30T02:40:46;6.10;99.90
53264;DHT22;39153;52.680;6.172;2024-01-30T02:43:12;6.00;99.90
53264;DHT22;39153;52.680;6.172;2024-01-30T02:45:38;6.40;99.90
53264;DHT22;39153;52.680;6.172;2024-01-30T02:48:03;6.50;99.90
53264;DHT22;39153;52.680;6.172;2024-01-30T02:50:29;6.40;99.90
53264;DHT22;39153;52.680;6.172;2024-01-30T02:52:55;5.90;99.90
53264;DHT22;39153;52.680;6.172;2024-01-30T02:55:20;6.40;99.90
53264;DHT22;39153;52.680;6.172;2024-01-30T02:57:46;6.30;99.90
53264;DHT22;39153;52.680;6.172;2024-01-30T03:00:12;6.00;99.90
53264;DHT22;39153;52.680;6.172;2024-01-30T03:02:38;6.00;99.90
53264;DHT22;39153;52.680;6.172;2024-01-30T03:05:05;5.90;99.90
53264;DHT22;39153;52.680;6.172;2024-01-30T03:07:31;6.40;99.90
53264;DHT22;39153;52.680;6.172;2024-01-30T03:09:57;6.00;99.90
53264;DHT22;39153;52.680;6.172;2024-01-30T03:12:22;5.80;99.90
53264;DHT22;39153;52.680;6.172;2024-01-30T03:14:48;6.40;99.90
53264;DHT22;39153;52.680;6.172;2024-01-30T03:17:15;5.80;99.90
53264;DHT22;39153;52.680;6.172;2024-01-30T03:19:40;6.40;99.90
53264;DHT22;39153;52.680;6.172;2024-01-30T03:22:06;6.40;99.90
53264;DHT22;39153;52.680;6.172;2024-01-30T03:24:32;6.00;99.90
53264;DHT22;39153;52.680;6.172;2024-01-30T03:26:57;6.50;99.90
53264;DHT22;39153;52.680;6.172;2024-01-30T03:29:23;6.10;99.90
53264;DHT22;39153;52.680;6.172;2024-01-30T03:31:49;6.90;99.90
53264;DHT22;39153;52.680;6.172;2024-01-30T03:34:14;6.60;99.90
53264;DHT22;39153;52.680;6.172;2024-01-30T03:36:40;6.70;99.90
53264;DHT22;39153;52.680;6.172;2024-01-30T03:39:06;6.80;99.90
53264;DHT22;39153;52.680;6.172;2024-01-30T03:41:31;6.80;99.90
53264;DHT22;39153;52.680;6.172;2024-01-30T03:43:57;6.80;99.90
53264;DHT22;39153;52.680;6.172;2024-01-30T03:46:23;6.50;99.90
53264;DHT22;39153;52.680;6.172;2024-01-30T03:48:49;6.90;99.90
53264;DHT22;39153;52.680;6.172;2024-01-30T03:51:15;6.80;99.90
53264;DHT22;39153;52.680;6.172;2024-01-30T03:53:42;6.90;99.90
53264;DHT22;39153;52.680;6.172;2024-01-30T03:56:08;6.70;99.90
53264;DHT22;39153;52.680;6.172;2024-01-30T03:58:34;6.70;99.90
53264;DHT22;39153;52.680;6.172;2024-01-30T04:01:00;6.60;99.90
53264;DHT22;39153;52.680;6.172;2024-01-30T04:03:25;6.70;99.90
53264;DHT22;39153;52.680;6.172;2024-01-30T04:05:52;7.10;99.90
53264;DHT22;39153;52.680;6.172;2024-01-30T04:08:17;6.70;99.90
53264;DHT22;39153;52.680;6.172;2024-01-30T04:10:43;7.20;99.90
53264;DHT22;39153;52.680;6.172;2024-01-30T04:13:09;7.20;99.90
53264;DHT22;39153;52.680;6.172;2024-01-30T04:15:35;7.10;99.90
53264;DHT22;39153;52.680;6.172;2024-01-30T04:18:00;6.90;99.90
53264;DHT22;39153;52.680;6.172;2024-01-30T04:20:26;7.20;99.90
53264;DHT22;39153;52.680;6.172;2024-01-30T04:22:52;7.30;99.90
53264;DHT22;39153;52.680;6.172;2024-01-30T04:25:17;7.30;99.90
53264;DHT22;39153;52.680;6.172;2024-01-30T04:27:43;7.10;99.90
53264;DHT22;39153;52.680;6.172;2024-01-30T04:30:09;7.30;99.90
53264;DHT22;39153;52.680;6.172;2024-01-30T04:32:36;7.40;99.90
53264;DHT22;39153;52.680;6.172;2024-01-30T04:35:02;7.40;99.90
53264;DHT22;39153;52.680;6.172;2024-01-30T04:37:28;7.00;99.90
53264;DHT22;39153;52.680;6.172;2024-01-30T04:39:54;7.10;99.90
53264;DHT22;39153;52.680;6.172;2024-01-30T04:42:20;7.20;99.90
53264;DHT22;39153;52.680;6.172;2024-01-30T04:44:45;7.30;99.90
53264;DHT22;39153;52.680;6.172;2024-01-30T04:47:11;7.30;99.90
53264;DHT22;39153;52.680;6.172;2024-01-30T04:49:40;7.40;99.90
53264;DHT22;39153;52.680;6.172;2024-01-30T04:52:07;7.10;99.90
53264;DHT22;39153;52.680;6.172;2024-01-30T04:54:33;7.30;99.90
53264;DHT22;39153;52.680;6.172;2024-01-30T04:56:59;7.30;99.90
53264;DHT22;39153;52.680;6.172;2024-01-30T04:59:24;7.00;99.90
53264;DHT22;39153;52.680;6.172;2024-01-30T05:01:50;7.30;99.90
53264;DHT22;39153;52.680;6.172;2024-01-30T05:04:16;7.10;99.90
53264;DHT22;39153;52.680;6.172;2024-01-30T05:06:41;7.40;99.90
53264;DHT22;39153;52.680;6.172;2024-01-30T05:09:07;7.00;99.90
53264;DHT22;39153;52.680;6.172;2024-01-30T05:11:40;7.30;99.90
53264;DHT22;39153;52.680;6.172;2024-01-30T05:14:06;7.20;99.90
53264;DHT22;39153;52.680;6.172;2024-01-30T05:16:33;6.10;99.90
53264;DHT22;39153;52.680;6.172;2024-01-30T05:18:59;7.10;99.90
53264;DHT22;39153;52.680;6.172;2024-01-30T05:21:25;7.30;99.90
53264;DHT22;39153;52.680;6.172;2024-01-30T05:23:50;7.20;99.90
53264;DHT22;39153;52.680;6.172;2024-01-30T05:26:16;7.40;99.90
53264;DHT22;39153;52.680;6.172;2024-01-30T05:28:42;7.20;99.90
53264;DHT22;39153;52.680;6.172;2024-01-30T05:31:10;7.20;99.90
53264;DHT22;39153;52.680;6.172;2024-01-30T05:33:36;7.40;99.90
53264;DHT22;39153;52.680;6.172;2024-01-30T05:36:02;7.20;99.90
53264;DHT22;39153;52.680;6.172;2024-01-30T05:38:31;7.10;99.90
53264;DHT22;39153;52.680;6.172;2024-01-30T05:40:57;7.30;99.90
53264;DHT22;39153;52.680;6.172;2024-01-30T05:43:24;7.30;99.90
53264;DHT22;39153;52.680;6.172;2024-01-30T05:45:50;7.10;99.90
53264;DHT22;39153;52.680;6.172;2024-01-30T05:48:16;7.30;99.90
53264;DHT22;39153;52.680;6.172;2024-01-30T05:50:41;7.00;99.90
53264;DHT22;39153;52.680;6.172;2024-01-30T05:53:07;7.10;99.90
53264;DHT22;39153;52.680;6.172;2024-01-30T05:55:33;7.20;99.90
53264;DHT22;39153;52.680;6.172;2024-01-30T05:57:59;7.20;99.90
53264;DHT22;39153;52.680;6.172;2024-01-30T06:00:24;7.00;99.90
53264;DHT22;39153;52.680;6.172;2024-01-30T06:02:50;6.90;99.90
53264;DHT22;39153;52.680;6.172;2024-01-30T06:05:16;7.00;99.90
53264;DHT22;39153;52.680;6.172;2024-01-30T06:07:41;7.10;99.90
53264;DHT22;39153;52.680;6.172;2024-01-30T06:10:07;7.20;99.90
53264;DHT22;39153;52.680;6.172;2024-01-30T06:12:34;7.20;99.90
53264;DHT22;39153;52.680;6.172;2024-01-30T06:15:00;7.30;99.90
53264;DHT22;39153;52.680;6.172;2024-01-30T06:17:26;7.10;99.90
53264;DHT22;39153;52.680;6.172;2024-01-30T06:19:52;7.30;99.90
53264;DHT22;39153;52.680;6.172;2024-01-30T06:22:17;7.00;99.90
53264;DHT22;39153;52.680;6.172;2024-01-30T06:24:43;7.30;99.90
53264;DHT22;39153;52.680;6.172;2024-01-30T06:27:10;7.30;99.90
53264;DHT22;39153;52.680;6.172;2024-01-30T06:29:36;7.30;99.90
53264;DHT22;39153;52.680;6.172;2024-01-30T06:32:02;7.30;99.90
53264;DHT22;39153;52.680;6.172;2024-01-30T06:34:28;7.10;99.90
53264;DHT22;39153;52.680;6.172;2024-01-30T06:36:53;7.40;99.90
53264;DHT22;39153;52.680;6.172;2024-01-30T06:39:19;7.40;99.90
53264;DHT22;39153;52.680;6.172;2024-01-30T06:41:44;7.10;99.90
53264;DHT22;39153;52.680;6.172;2024-01-30T06:44:12;7.40;99.90
53264;DHT22;39153;52.680;6.172;2024-01-30T06:46:38;7.50;99.90
53264;DHT22;39153;52.680;6.172;2024-01-30T06:49:04;7.50;99.90
53264;DHT22;39153;52.680;6.172;2024-01-30T06:51:30;7.20;99.90
53264;DHT22;39153;52.680;6.172;2024-01-30T06:53:55;7.20;99.90
53264;DHT22;39153;52.680;6.172;2024-01-30T06:56:21;7.20;99.90
53264;DHT22;39153;52.680;6.172;2024-01-30T06:58:50;7.60;99.90
53264;DHT22;39153;52.680;6.172;2024-01-30T07:01:16;7.40;99.90
53264;DHT22;39153;52.680;6.172;2024-01-30T07:03:42;7.40;99.90
53264;DHT22;39153;52.680;6.172;2024-01-30T07:06:09;7.40;99.90
53264;DHT22;39153;52.680;6.172;2024-01-30T07:08:36;7.40;99.90
53264;DHT22;39153;52.680;6.172;2024-01-30T07:11:06;7.30;99.90
53264;DHT22;39153;52.680;6.172;2024-01-30T07:13:32;7.40;99.90
53264;DHT22;39153;52.680;6.172;2024-01-30T07:15:58;7.40;99.90
53264;DHT22;39153;52.680;6.172;2024-01-30T07:18:24;7.30;99.90
53264;DHT22;39153;52.680;6.172;2024-01-30T07:20:49;7.30;99.90
53264;DHT22;39153;52.680;6.172;2024-01-30T07:23:16;7.30;99.90
53264;DHT22;39153;52.680;6.172;2024-01-30T07:25:46;7.40;99.90
53264;DHT22;39153;52.680;6.172;2024-01-30T07:28:14;7.30;99.90
53264;DHT22;39153;52.680;6.172;2024-01-30T07:30:42;7.40;99.90
53264;DHT22;39153;52.680;6.172;2024-01-30T07:33:08;7.30;99.90
53264;DHT22;39153;52.680;6.172;2024-01-30T07:35:35;7.60;99.90
53264;DHT22;39153;52.680;6.172;2024-01-30T07:38:01;7.60;99.90
53264;DHT22;39153;52.680;6.172;2024-01-30T07:40:26;7.80;99.90
53264;DHT22;39153;52.680;6.172;2024-01-30T07:42:54;7.70;99.90
53264;DHT22;39153;52.680;6.172;2024-01-30T07:45:20;7.70;99.90
53264;DHT22;39153;52.680;6.172;2024-01-30T07:47:50;7.70;99.90
53264;DHT22;39153;52.680;6.172;2024-01-30T07:50:16;7.90;99.90
53264;DHT22;39153;52.680;6.172;2024-01-30T07:52:43;7.50;99.90
53264;DHT22;39153;52.680;6.172;2024-01-30T07:55:08;7.80;99.90
53264;DHT22;39153;52.680;6.172;2024-01-30T07:57:34;7.70;99.90
53264;DHT22;39153;52.680;6.172;2024-01-30T08:00:01;7.80;99.90
53264;DHT22;39153;52.680;6.172;2024-01-30T08:02:27;7.60;99.90
53264;DHT22;39153;52.680;6.172;2024-01-30T08:04:52;7.60;99.90
53264;DHT22;39153;52.680;6.172;2024-01-30T08:07:18;7.70;99.90
53264;DHT22;39153;52.680;6.172;2024-01-30T08:09:44;7.80;99.90
53264;DHT22;39153;52.680;6.172;2024-01-30T08:12:09;7.60;99.90
53264;DHT22;39153;52.680;6.172;2024-01-30T08:14:35;7.80;99.90
53264;DHT22;39153;52.680;6.172;2024-01-30T08:17:01;7.60;99.90
53264;DHT22;39153;52.680;6.172;2024-01-30T08:19:26;7.90;99.90
53264;DHT22;39153;52.680;6.172;2024-01-30T08:21:52;7.80;99.90
53264;DHT22;39153;52.680;6.172;2024-01-30T08:24:18;7.90;99.90
53264;DHT22;39153;52.680;6.172;2024-01-30T08:26:43;7.70;99.90
53264;DHT22;39153;52.680;6.172;2024-01-30T08:29:09;7.80;99.90
53264;DHT22;39153;52.680;6.172;2024-01-30T08:31:35;7.70;99.90
53264;DHT22;39153;52.680;6.172;2024-01-30T08:34:00;7.90;99.90
53264;DHT22;39153;52.680;6.172;2024-01-30T08:36:26;7.70;99.90
53264;DHT22;39153;52.680;6.172;2024-01-30T08:38:52;7.70;99.90
53264;DHT22;39153;52.680;6.172;2024-01-30T08:41:17;7.60;99.90
53264;DHT22;39153;52.680;6.172;2024-01-30T08:43:43;7.70;99.90
53264;DHT22;39153;52.680;6.172;2024-01-30T08:46:10;8.00;99.90
53264;DHT22;39153;52.680;6.172;2024-01-30T08:48:36;7.70;99.90
53264;DHT22;39153;52.680;6.172;2024-01-30T08:51:02;8.00;99.90
53264;DHT22;39153;52.680;6.172;2024-01-30T08:53:27;7.90;99.90
53264;DHT22;39153;52.680;6.172;2024-01-30T08:55:53;8.20;99.90
53264;DHT22;39153;52.680;6.172;2024-01-30T08:58:19;8.20;99.90
53264;DHT22;39153;52.680;6.172;2024-01-30T09:00:45;8.00;99.90
53264;DHT22;39153;52.680;6.172;2024-01-30T09:03:10;8.00;99.90
53264;DHT22;39153;52.680;6.172;2024-01-30T09:05:36;8.10;99.90
53264;DHT22;39153;52.680;6.172;2024-01-30T09:08:02;8.20;99.90
53264;DHT22;39153;52.680;6.172;2024-01-30T09:10:27;8.40;99.90
53264;DHT22;39153;52.680;6.172;2024-01-30T09:12:53;8.50;99.90
53264;DHT22;39153;52.680;6.172;2024-01-30T09:15:19;8.30;99.90
53264;DHT22;39153;52.680;6.172;2024-01-30T09:17:44;8.60;99.90
53264;DHT22;39153;52.680;6.172;2024-01-30T09:20:10;8.30;99.90
53264;DHT22;39153;52.680;6.172;2024-01-30T09:22:36;8.50;99.90
53264;DHT22;39153;52.680;6.172;2024-01-30T09:25:02;8.60;99.90
53264;DHT22;39153;52.680;6.172;2024-01-30T09:27:28;8.50;99.90
53264;DHT22;39153;52.680;6.172;2024-01-30T09:29:53;8.70;99.90
53264;DHT22;39153;52.680;6.172;2024-01-30T09:32:19;8.80;99.90
53264;DHT22;39153;52.680;6.172;2024-01-30T09:34:45;8.60;99.90
53264;DHT22;39153;52.680;6.172;2024-01-30T09:37:11;8.70;99.90
53264;DHT22;39153;52.680;6.172;2024-01-30T09:39:36;8.60;99.90
53264;DHT22;39153;52.680;6.172;2024-01-30T09:42:23;8.90;99.90
53264;DHT22;39153;52.680;6.172;2024-01-30T09:44:51;8.70;99.90
53264;DHT22;39153;52.680;6.172;2024-01-30T09:47:18;8.80;99.90
53264;DHT22;39153;52.680;6.172;2024-01-30T09:49:44;8.80;99.90
53264;DHT22;39153;52.680;6.172;2024-01-30T09:52:11;9.20;99.90
53264;DHT22;39153;52.680;6.172;2024-01-30T09:54:38;9.30;99.90
53264;DHT22;39153;52.680;6.172;2024-01-30T09:57:04;9.20;99.90
53264;DHT22;39153;52.680;6.172;2024-01-30T09:59:30;9.60;99.90
53264;DHT22;39153;52.680;6.172;2024-01-30T10:01:57;9.80;99.90
53264;DHT22;39153;52.680;6.172;2024-01-30T10:04:23;9.90;99.90
53264;DHT22;39153;52.680;6.172;2024-01-30T10:06:48;9.90;99.90
53264;DHT22;39153;52.680;6.172;2024-01-30T10:09:14;10.10;99.90
53264;DHT22;39153;52.680;6.172;2024-01-30T10:11:40;10.00;99.90
53264;DHT22;39153;52.680;6.172;2024-01-30T10:14:06;9.90;99.90
53264;DHT22;39153;52.680;6.172;2024-01-30T10:16:31;10.10;99.90
53264;DHT22;39153;52.680;6.172;2024-01-30T10:18:57;10.20;99.90
53264;DHT22;39153;52.680;6.172;2024-01-30T10:21:23;10.40;99.90
53264;DHT22;39153;52.680;6.172;2024-01-30T10:23:49;10.20;99.90
53264;DHT22;39153;52.680;6.172;2024-01-30T10:26:16;10.40;99.90
53264;DHT22;39153;52.680;6.172;2024-01-30T10:28:43;10.30;99.90
53264;DHT22;39153;52.680;6.172;2024-01-30T10:31:08;10.40;99.90
53264;DHT22;39153;52.680;6.172;2024-01-30T10:33:34;10.20;99.90
53264;DHT22;39153;52.680;6.172;2024-01-30T10:36:01;10.20;99.90
53264;DHT22;39153;52.680;6.172;2024-01-30T10:38:32;10.40;99.90
53264;DHT22;39153;52.680;6.172;2024-01-30T10:40:59;10.40;99.90
53264;DHT22;39153;52.680;6.172;2024-01-30T10:43:32;10.40;99.90
53264;DHT22;39153;52.680;6.172;2024-01-30T10:46:15;10.40;99.90
53264;DHT22;39153;52.680;6.172;2024-01-30T10:48:43;10.50;99.90
53264;DHT22;39153;52.680;6.172;2024-01-30T10:51:13;10.60;99.90
53264;DHT22;39153;52.680;6.172;2024-01-30T10:53:39;10.70;99.90
53264;DHT22;39153;52.680;6.172;2024-01-30T10:56:06;10.50;99.90
53264;DHT22;39153;52.680;6.172;2024-01-30T10:58:33;10.40;99.90
53264;DHT22;39153;52.680;6.172;2024-01-30T11:00:59;10.40;99.90
53264;DHT22;39153;52.680;6.172;2024-01-30T11:03:26;10.60;99.90
53264;DHT22;39153;52.680;6.172;2024-01-30T11:05:52;10.60;99.90
53264;DHT22;39153;52.680;6.172;2024-01-30T11:08:24;10.40;99.90
53264;DHT22;39153;52.680;6.172;2024-01-30T11:10:55;10.60;99.90
53264;DHT22;39153;52.680;6.172;2024-01-30T11:13:21;10.60;99.90
53264;DHT22;39153;52.680;6.172;2024-01-30T11:15:50;10.40;99.90
53264;DHT22;39153;52.680;6.172;2024-01-30T11:18:25;10.50;99.90
53264;DHT22;39153;52.680;6.172;2024-01-30T11:20:51;10.50;99.90
53264;DHT22;39153;52.680;6.172;2024-01-30T11:23:17;10.60;99.90
53264;DHT22;39153;52.680;6.172;2024-01-30T11:25:44;10.50;99.90
53264;DHT22;39153;52.680;6.172;2024-01-30T11:28:15;10.60;99.90
53264;DHT22;39153;52.680;6.172;2024-01-30T11:30:41;10.70;99.90
53264;DHT22;39153;52.680;6.172;2024-01-30T11:33:08;10.80;99.90
53264;DHT22;39153;52.680;6.172;2024-01-30T11:35:36;10.90;99.90
53264;DHT22;39153;52.680;6.172;2024-01-30T11:38:02;10.90;99.90
53264;DHT22;39153;52.680;6.172;2024-01-30T11:40:29;11.00;99.90
53264;DHT22;39153;52.680;6.172;2024-01-30T11:42:56;11.10;99.90
53264;DHT22;39153;52.680;6.172;2024-01-30T11:45:23;11.10;99.90
53264;DHT22;39153;52.680;6.172;2024-01-30T11:47:49;11.10;99.90
53264;DHT22;39153;52.680;6.172;2024-01-30T11:50:15;11.20;99.90
53264;DHT22;39153;52.680;6.172;2024-01-30T11:52:41;11.10;99.90
53264;DHT22;39153;52.680;6.172;2024-01-30T11:55:08;11.20;99.90
53264;DHT22;39153;52.680;6.172;2024-01-30T11:57:33;11.20;99.90
53264;DHT22;39153;52.680;6.172;2024-01-30T12:00:01;11.00;99.90
53264;DHT22;39153;52.680;6.172;2024-01-30T12:02:29;10.90;99.90
53264;DHT22;39153;52.680;6.172;2024-01-30T12:04:55;10.70;99.90
53264;DHT22;39153;52.680;6.172;2024-01-30T12:07:21;10.70;99.90
53264;DHT22;39153;52.680;6.172;2024-01-30T12:09:53;10.50;99.90
53264;DHT22;39153;52.680;6.172;2024-01-30T12:12:22;10.50;99.90
53264;DHT22;39153;52.680;6.172;2024-01-30T12:14:49;10.60;99.90
53264;DHT22;39153;52.680;6.172;2024-01-30T12:17:30;10.50;99.90
53264;DHT22;39153;52.680;6.172;2024-01-30T12:20:17;10.50;99.90
53264;DHT22;39153;52.680;6.172;2024-01-30T12:22:45;10.40;99.90
53264;DHT22;39153;52.680;6.172;2024-01-30T12:25:20;10.30;99.90
53264;DHT22;39153;52.680;6.172;2024-01-30T12:27:48;10.30;99.90
53264;DHT22;39153;52.680;6.172;2024-01-30T12:30:18;10.30;99.90
53264;DHT22;39153;52.680;6.172;2024-01-30T12:32:45;10.30;99.90
53264;DHT22;39153;52.680;6.172;2024-01-30T12:35:19;10.30;99.90
53264;DHT22;39153;52.680;6.172;2024-01-30T12:37:45;10.30;99.90
53264;DHT22;39153;52.680;6.172;2024-01-30T12:40:12;10.30;99.90
53264;DHT22;39153;52.680;6.172;2024-01-30T12:42:40;10.40;99.90
53264;DHT22;39153;52.680;6.172;2024-01-30T12:45:07;10.40;99.90
53264;DHT22;39153;52.680;6.172;2024-01-30T12:47:33;10.40;99.90
53264;DHT22;39153;52.680;6.172;2024-01-30T12:49:59;10.30;99.90
53264;DHT22;39153;52.680;6.172;2024-01-30T12:52:25;10.40;99.90
53264;DHT22;39153;52.680;6.172;2024-01-30T12:54:51;10.20;99.90
53264;DHT22;39153;52.680;6.172;2024-01-30T12:57:17;10.10;99.90
53264;DHT22;39153;52.680;6.172;2024-01-30T12:59:44;10.00;99.90
53264;DHT22;39153;52.680;6.172;2024-01-30T13:02:11;9.70;99.90
53264;DHT22;39153;52.680;6.172;2024-01-30T13:04:37;9.90;99.90
53264;DHT22;39153;52.680;6.172;2024-01-30T13:07:03;9.80;99.90
53264;DHT22;39153;52.680;6.172;2024-01-30T13:09:32;9.80;99.90
53264;DHT22;39153;52.680;6.172;2024-01-30T13:11:58;9.80;99.90
53264;DHT22;39153;52.680;6.172;2024-01-30T13:14:25;9.80;99.90
53264;DHT22;39153;52.680;6.172;2024-01-30T13:16:52;9.70;99.90
53264;DHT22;39153;52.680;6.172;2024-01-30T13:19:18;9.70;99.90
53264;DHT22;39153;52.680;6.172;2024-01-30T13:21:44;9.70;99.90
53264;DHT22;39153;52.680;6.172;2024-01-30T13:24:10;9.60;99.90
53264;DHT22;39153;52.680;6.172;2024-01-30T13:26:35;9.60;99.90
53264;DHT22;39153;52.680;6.172;2024-01-30T13:29:01;9.70;99.90
53264;DHT22;39153;52.680;6.172;2024-01-30T13:31:27;9.80;99.90
53264;DHT22;39153;52.680;6.172;2024-01-30T13:33:53;9.90;99.90
53264;DHT22;39153;52.680;6.172;2024-01-30T13:36:19;9.90;99.90
53264;DHT22;39153;52.680;6.172;2024-01-30T13:38:46;9.90;99.90
53264;DHT22;39153;52.680;6.172;2024-01-30T13:41:12;9.90;99.90
53264;DHT22;39153;52.680;6.172;2024-01-30T13:43:37;10.00;99.90
53264;DHT22;39153;52.680;6.172;2024-01-30T13:46:03;10.00;99.90
53264;DHT22;39153;52.680;6.172;2024-01-30T13:48:30;9.90;99.90
53264;DHT22;39153;52.680;6.172;2024-01-30T13:50:56;9.90;99.90
53264;DHT22;39153;52.680;6.172;2024-01-30T13:53:22;9.90;99.90
53264;DHT22;39153;52.680;6.172;2024-01-30T13:55:48;9.80;99.90
53264;DHT22;39153;52.680;6.172;2024-01-30T13:58:14;9.80;99.90
53264;DHT22;39153;52.680;6.172;2024-01-30T14:00:39;9.80;99.90
53264;DHT22;39153;52.680;6.172;2024-01-30T14:03:05;9.70;99.90
53264;DHT22;39153;52.680;6.172;2024-01-30T14:05:31;9.70;99.90
53264;DHT22;39153;52.680;6.172;2024-01-30T14:07:58;9.70;99.90
53264;DHT22;39153;52.680;6.172;2024-01-30T14:10:25;9.60;99.90
53264;DHT22;39153;52.680;6.172;2024-01-30T14:12:50;9.60;99.90
53264;DHT22;39153;52.680;6.172;2024-01-30T14:15:16;9.50;99.90
53264;DHT22;39153;52.680;6.172;2024-01-30T14:17:45;9.60;99.90
53264;DHT22;39153;52.680;6.172;2024-01-30T14:20:14;9.50;99.90
53264;DHT22;39153;52.680;6.172;2024-01-30T14:22:39;9.50;99.90
53264;DHT22;39153;52.680;6.172;2024-01-30T14:25:06;9.40;99.90
53264;DHT22;39153;52.680;6.172;2024-01-30T14:27:32;9.40;99.90
53264;DHT22;39153;52.680;6.172;2024-01-30T14:29:58;9.50;99.90
53264;DHT22;39153;52.680;6.172;2024-01-30T14:32:24;9.50;99.90
53264;DHT22;39153;52.680;6.172;2024-01-30T14:34:50;9.40;99.90
53264;DHT22;39153;52.680;6.172;2024-01-30T14:37:17;9.40;99.90
53264;DHT22;39153;52.680;6.172;2024-01-30T14:39:43;9.30;99.90
53264;DHT22;39153;52.680;6.172;2024-01-30T14:42:09;9.30;99.90
53264;DHT22;39153;52.680;6.172;2024-01-30T14:44:35;9.20;99.90
53264;DHT22;39153;52.680;6.172;2024-01-30T14:47:01;9.30;99.90
53264;DHT22;39153;52.680;6.172;2024-01-30T14:49:28;9.20;99.90
53264;DHT22;39153;52.680;6.172;2024-01-30T14:51:53;9.10;99.90
53264;DHT22;39153;52.680;6.172;2024-01-30T14:54:19;9.40;99.90
53264;DHT22;39153;52.680;6.172;2024-01-30T14:56:45;9.10;99.90
53264;DHT22;39153;52.680;6.172;2024-01-30T14:59:11;9.10;99.90
53264;DHT22;39153;52.680;6.172;2024-01-30T15:01:37;9.00;99.90
53264;DHT22;39153;52.680;6.172;2024-01-30T15:04:03;8.80;99.90
53264;DHT22;39153;52.680;6.172;2024-01-30T15:06:29;8.90;99.90
53264;DHT22;39153;52.680;6.172;2024-01-30T15:08:54;8.80;99.90
53264;DHT22;39153;52.680;6.172;2024-01-30T15:11:20;8.80;99.90
53264;DHT22;39153;52.680;6.172;2024-01-30T15:13:47;8.90;99.90
53264;DHT22;39153;52.680;6.172;2024-01-30T15:16:14;8.80;99.90
53264;DHT22;39153;52.680;6.172;2024-01-30T15:18:39;8.60;99.90
53264;DHT22;39153;52.680;6.172;2024-01-30T15:21:05;8.70;99.90
53264;DHT22;39153;52.680;6.172;2024-01-30T15:23:31;8.80;99.90
53264;DHT22;39153;52.680;6.172;2024-01-30T15:25:56;8.50;99.90
53264;DHT22;39153;52.680;6.172;2024-01-30T15:28:36;8.80;99.90
53264;DHT22;39153;52.680;6.172;2024-01-30T15:31:03;8.50;99.90
53264;DHT22;39153;52.680;6.172;2024-01-30T15:33:28;8.50;99.90
53264;DHT22;39153;52.680;6.172;2024-01-30T15:35:54;8.50;99.90
53264;DHT22;39153;52.680;6.172;2024-01-30T15:38:20;8.60;99.90